sensor_id;sensor_type;location;lat;lon;timestamp;pressure;altitude;pressure_sealevel;temperature;humidity
29417;BME280;28421;51.030;4.006;2024-02-21T00:00:54;102275.69;;;9.30;100.00
29417;BME280;28421;51.030;4.006;2024-02-21T00:03:20;102264.94;;;9.30;100.00
29417;BME280;28421;51.030;4.006;2024-02-21T00:05:45;102253.00;;;9.23;100.00
29417;BME280;28421;51.030;4.006;2024-02-21T00:08:11;102240.09;;;9.16;100.00
29417;BME280;28421;51.030;4.006;2024-02-21T00:10:36;102284.84;;;9.48;100.00
29417;BME280;28421;51.030;4.006;2024-02-21T00:13:02;102239.03;;;9.08;100.00
29417;BME280;28421;51.030;4.006;2024-02-21T00:15:27;102268.19;;;9.12;100.00
29417;BME280;28421;51.030;4.006;2024-02-21T00:17:53;102276.97;;;9.14;100.00
29417;BME280;28421;51.030;4.006;2024-02-21T00:20:18;102254.34;;;8.96;100.00
29417;BME280;28421;51.030;4.006;2024-02-21T00:22:45;102223.28;;;8.82;100.00
29417;BME280;28421;51.030;4.006;2024-02-21T00:25:11;102254.47;;;8.94;100.00
29417;BME280;28421;51.030;4.006;2024-02-21T00:27:36;102224.06;;;8.73;100.00
29417;BME280;28421;51.030;4.006;2024-02-21T00:30:02;102256.28;;;8.94;100.00
29417;BME280;28421;51.030;4.006;2024-02-21T00:32:28;102223.56;;;8.79;100.00
29417;BME280;28421;51.030;4.006;2024-02-21T00:34:54;102208.44;;;8.78;100.00
29417;BME280;28421;51.030;4.006;2024-02-21T00:37:20;102240.16;;;9.05;100.00
29417;BME280;28421;51.030;4.006;2024-02-21T00:39:45;102170.56;;;8.71;100.00
29417;BME280;28421;51.030;4.006;2024-02-21T00:42:11;102177.69;;;8.82;100.00
29417;BME280;28421;51.030;4.006;2024-02-21T00:44:36;102193.34;;;8.98;100.00
29417;BME280;28421;51.030;4.006;2024-02-21T00:47:02;102207.72;;;9.08;100.00
29417;BME280;28421;51.030;4.006;2024-02-21T00:49:27;102210.84;;;9.13;100.00
29417;BME280;28421;51.030;4.006;2024-02-21T00:51:52;102178.03;;;8.89;100.00
29417;BME280;28421;51.030;4.006;2024-02-21T00:54:18;102191.97;;;9.04;100.00
29417;BME280;28421;51.030;4.006;2024-02-21T00:56:44;102191.41;;;9.00;100.00
29417;BME280;28421;51.030;4.006;2024-02-21T00:59:09;102177.19;;;8.88;100.00
29417;BME280;28421;51.030;4.006;2024-02-21T01:01:34;102155.63;;;8.79;100.00
29417;BME280;28421;51.030;4.006;2024-02-21T01:04:00;102191.28;;;9.02;100.00
29417;BME280;28421;51.030;4.006;2024-02-21T01:06:25;102201.75;;;9.05;100.00
29417;BME280;28421;51.030;4.006;2024-02-21T01:08:51;102210.06;;;9.02;100.00
29417;BME280;28421;51.030;4.006;2024-02-21T01:11:17;102164.88;;;8.86;100.00
29417;BME280;28421;51.030;4.006;2024-02-21T01:13:43;102189.28;;;9.04;100.00
29417;BME280;28421;51.030;4.006;2024-02-21T01:16:09;102162.78;;;8.89;100.00
29417;BME280;28421;51.030;4.006;2024-02-21T01:18:37;102170.63;;;8.81;100.00
29417;BME280;28421;51.030;4.006;2024-02-21T01:21:02;102153.97;;;8.66;100.00
29417;BME280;28421;51.030;4.006;2024-02-21T01:23:34;102185.69;;;8.93;100.00
29417;BME280;28421;51.030;4.006;2024-02-21T01:25:59;102168.72;;;8.72;100.00
29417;BME280;28421;51.030;4.006;2024-02-21T01:28:25;102136.59;;;8.61;100.00
29417;BME280;28421;51.030;4.006;2024-02-21T01:30:50;102154.72;;;8.68;100.00
29417;BME280;28421;51.030;4.006;2024-02-21T01:33:17;102152.53;;;8.62;100.00
29417;BME280;28421;51.030;4.006;2024-02-21T01:35:42;102112.56;;;8.38;100.00
29417;BME280;28421;51.030;4.006;2024-02-21T01:38:08;102157.94;;;8.51;100.00
29417;BME280;28421;51.030;4.006;2024-02-21T01:40:33;102130.69;;;8.35;100.00
29417;BME280;28421;51.030;4.006;2024-02-21T01:42:59;102137.59;;;8.49;100.00
29417;BME280;28421;51.030;4.006;2024-02-21T01:45:24;102139.81;;;8.43;100.00
29417;BME280;28421;51.030;4.006;2024-02-21T01:47:50;102168.78;;;8.50;100.00
29417;BME280;28421;51.030;4.006;2024-02-21T01:50:16;102135.56;;;8.30;100.00
29417;BME280;28421;51.030;4.006;2024-02-21T01:52:46;102163.91;;;8.55;100.00
29417;BME280;28421;51.030;4.006;2024-02-21T01:55:13;102145.78;;;8.36;100.00
29417;BME280;28421;51.030;4.006;2024-02-21T01:57:40;102121.66;;;8.25;100.00
29417;BME280;28421;51.030;4.006;2024-02-21T02:00:07;102139.91;;;8.53;100.00
29417;BME280;28421;51.030;4.006;2024-02-21T02:02:37;102107.53;;;8.34;100.00
29417;BME280;28421;51.030;4.006;2024-02-21T02:05:03;102124.81;;;8.41;100.00
29417;BME280;28421;51.030;4.006;2024-02-21T02:07:31;102107.59;;;8.11;100.00
29417;BME280;28421;51.030;4.006;2024-02-21T02:09:57;102161.34;;;8.53;100.00
29417;BME280;28421;51.030;4.006;2024-02-21T02:12:23;102137.53;;;8.39;100.00
29417;BME280;28421;51.030;4.006;2024-02-21T02:15:02;102126.06;;;8.26;100.00
29417;BME280;28421;51.030;4.006;2024-02-21T02:17:31;102128.25;;;8.43;100.00
29417;BME280;28421;51.030;4.006;2024-02-21T02:19:56;102128.63;;;8.38;100.00
29417;BME280;28421;51.030;4.006;2024-02-21T02:22:23;102106.72;;;8.22;100.00
29417;BME280;28421;51.030;4.006;2024-02-21T02:24:49;102095.41;;;8.07;100.00
29417;BME280;28421;51.030;4.006;2024-02-21T02:27:15;102085.94;;;8.03;100.00
29417;BME280;28421;51.030;4.006;2024-02-21T02:29:41;102104.91;;;8.11;100.00
29417;BME280;28421;51.030;4.006;2024-02-21T02:32:06;102134.69;;;8.29;100.00
29417;BME280;28421;51.030;4.006;2024-02-21T02:34:32;102118.16;;;8.24;100.00
29417;BME280;28421;51.030;4.006;2024-02-21T02:36:57;102113.84;;;8.33;100.00
29417;BME280;28421;51.030;4.006;2024-02-21T02:39:22;102089.06;;;8.08;100.00
29417;BME280;28421;51.030;4.006;2024-02-21T02:41:48;102131.16;;;8.40;100.00
29417;BME280;28421;51.030;4.006;2024-02-21T02:44:13;102099.63;;;8.21;100.00
29417;BME280;28421;51.030;4.006;2024-02-21T02:46:42;102093.03;;;8.25;100.00
29417;BME280;28421;51.030;4.006;2024-02-21T02:49:07;102061.06;;;8.12;100.00
29417;BME280;28421;51.030;4.006;2024-02-21T02:51:33;102061.41;;;8.19;100.00
29417;BME280;28421;51.030;4.006;2024-02-21T02:53:58;102087.13;;;8.21;100.00
29417;BME280;28421;51.030;4.006;2024-02-21T02:56:24;102047.19;;;8.07;100.00
29417;BME280;28421;51.030;4.006;2024-02-21T02:58:49;102057.03;;;8.18;100.00
29417;BME280;28421;51.030;4.006;2024-02-21T03:01:14;102051.09;;;8.14;100.00
29417;BME280;28421;51.030;4.006;2024-02-21T03:03:40;102013.63;;;7.92;100.00
29417;BME280;28421;51.030;4.006;2024-02-21T03:06:05;102048.41;;;8.14;100.00
29417;BME280;28421;51.030;4.006;2024-02-21T03:08:31;102065.31;;;8.15;100.00
29417;BME280;28421;51.030;4.006;2024-02-21T03:10:58;102043.53;;;8.08;100.00
29417;BME280;28421;51.030;4.006;2024-02-21T03:13:25;102016.22;;;7.93;100.00
29417;BME280;28421;51.030;4.006;2024-02-21T03:15:51;102060.66;;;8.28;100.00
29417;BME280;28421;51.030;4.006;2024-02-21T03:18:17;102051.38;;;8.32;100.00
29417;BME280;28421;51.030;4.006;2024-02-21T03:20:42;102042.50;;;8.32;100.00
29417;BME280;28421;51.030;4.006;2024-02-21T03:23:08;102023.66;;;8.22;100.00
29417;BME280;28421;51.030;4.006;2024-02-21T03:25:34;101984.91;;;7.94;100.00
29417;BME280;28421;51.030;4.006;2024-02-21T03:28:00;102017.91;;;8.27;100.00
29417;BME280;28421;51.030;4.006;2024-02-21T03:30:25;102002.09;;;8.23;100.00
29417;BME280;28421;51.030;4.006;2024-02-21T03:32:51;101996.03;;;8.21;100.00
29417;BME280;28421;51.030;4.006;2024-02-21T03:35:16;102010.72;;;8.27;100.00
29417;BME280;28421;51.030;4.006;2024-02-21T03:37:42;101999.66;;;8.20;100.00
29417;BME280;28421;51.030;4.006;2024-02-21T03:40:08;102012.41;;;8.28;100.00
29417;BME280;28421;51.030;4.006;2024-02-21T03:42:34;101960.06;;;7.92;100.00
29417;BME280;28421;51.030;4.006;2024-02-21T03:44:59;101994.56;;;8.17;100.00
29417;BME280;28421;51.030;4.006;2024-02-21T03:47:25;101968.53;;;8.08;100.00
29417;BME280;28421;51.030;4.006;2024-02-21T03:49:50;101998.50;;;8.13;100.00
29417;BME280;28421;51.030;4.006;2024-02-21T03:52:16;101964.19;;;7.96;100.00
29417;BME280;28421;51.030;4.006;2024-02-21T03:54:42;101966.63;;;7.99;100.00
29417;BME280;28421;51.030;4.006;2024-02-21T03:57:08;101994.06;;;8.23;100.00
29417;BME280;28421;51.030;4.006;2024-02-21T03:59:33;101967.81;;;8.06;100.00
29417;BME280;28421;51.030;4.006;2024-02-21T04:01:59;102034.00;;;8.27;100.00
29417;BME280;28421;51.030;4.006;2024-02-21T04:04:25;102003.72;;;8.15;100.00
29417;BME280;28421;51.030;4.006;2024-02-21T04:06:51;101995.75;;;8.25;100.00
29417;BME280;28421;51.030;4.006;2024-02-21T04:09:17;102000.84;;;8.28;100.00
29417;BME280;28421;51.030;4.006;2024-02-21T04:11:43;102001.44;;;8.31;100.00
29417;BME280;28421;51.030;4.006;2024-02-21T04:14:08;101956.31;;;7.94;100.00
29417;BME280;28421;51.030;4.006;2024-02-21T04:16:34;101983.97;;;8.16;100.00
29417;BME280;28421;51.030;4.006;2024-02-21T04:19:00;101992.75;;;8.18;100.00
29417;BME280;28421;51.030;4.006;2024-02-21T04:21:27;102006.81;;;8.31;100.00
29417;BME280;28421;51.030;4.006;2024-02-21T04:23:52;101964.84;;;8.20;100.00
29417;BME280;28421;51.030;4.006;2024-02-21T04:26:18;101991.31;;;8.35;100.00
29417;BME280;28421;51.030;4.006;2024-02-21T04:28:45;101981.47;;;8.35;100.00
29417;BME280;28421;51.030;4.006;2024-02-21T04:31:11;101998.75;;;8.42;100.00
29417;BME280;28421;51.030;4.006;2024-02-21T04:33:36;101930.94;;;8.10;100.00
29417;BME280;28421;51.030;4.006;2024-02-21T04:36:02;101975.34;;;8.33;100.00
29417;BME280;28421;51.030;4.006;2024-02-21T04:38:27;101958.31;;;8.13;100.00
29417;BME280;28421;51.030;4.006;2024-02-21T04:40:55;101965.38;;;8.14;100.00
29417;BME280;28421;51.030;4.006;2024-02-21T04:43:24;101957.91;;;8.18;100.00
29417;BME280;28421;51.030;4.006;2024-02-21T04:45:50;101970.13;;;8.32;100.00
29417;BME280;28421;51.030;4.006;2024-02-21T04:48:18;101959.38;;;8.22;100.00
29417;BME280;28421;51.030;4.006;2024-02-21T04:50:44;101954.31;;;8.29;100.00
29417;BME280;28421;51.030;4.006;2024-02-21T04:53:09;101972.44;;;8.36;100.00
29417;BME280;28421;51.030;4.006;2024-02-21T04:55:35;101922.75;;;8.11;100.00
29417;BME280;28421;51.030;4.006;2024-02-21T04:58:00;101935.69;;;8.27;100.00
29417;BME280;28421;51.030;4.006;2024-02-21T05:00:27;101912.50;;;8.16;100.00
29417;BME280;28421;51.030;4.006;2024-02-21T05:02:53;101880.69;;;8.02;100.00
29417;BME280;28421;51.030;4.006;2024-02-21T05:05:19;101887.72;;;8.03;100.00
29417;BME280;28421;51.030;4.006;2024-02-21T05:07:44;101890.00;;;8.08;100.00
29417;BME280;28421;51.030;4.006;2024-02-21T05:10:10;101917.34;;;8.22;100.00
29417;BME280;28421;51.030;4.006;2024-02-21T05:12:35;101896.94;;;8.10;100.00
29417;BME280;28421;51.030;4.006;2024-02-21T05:15:01;101891.00;;;8.07;100.00
29417;BME280;28421;51.030;4.006;2024-02-21T05:17:28;101906.88;;;8.19;100.00
29417;BME280;28421;51.030;4.006;2024-02-21T05:19:53;101893.53;;;8.08;100.00
29417;BME280;28421;51.030;4.006;2024-02-21T05:22:19;101885.91;;;8.04;100.00
29417;BME280;28421;51.030;4.006;2024-02-21T05:24:44;101881.38;;;8.04;100.00
29417;BME280;28421;51.030;4.006;2024-02-21T05:27:09;101868.66;;;7.96;100.00
29417;BME280;28421;51.030;4.006;2024-02-21T05:29:35;101881.38;;;8.04;100.00
29417;BME280;28421;51.030;4.006;2024-02-21T05:32:00;101910.53;;;8.18;100.00
29417;BME280;28421;51.030;4.006;2024-02-21T05:34:26;101875.31;;;8.02;100.00
29417;BME280;28421;51.030;4.006;2024-02-21T05:36:51;101867.47;;;8.10;100.00
29417;BME280;28421;51.030;4.006;2024-02-21T05:39:18;101830.63;;;7.82;100.00
29417;BME280;28421;51.030;4.006;2024-02-21T05:41:43;101854.16;;;7.99;100.00
29417;BME280;28421;51.030;4.006;2024-02-21T05:44:10;101852.91;;;8.03;100.00
29417;BME280;28421;51.030;4.006;2024-02-21T05:46:36;101859.00;;;8.05;100.00
29417;BME280;28421;51.030;4.006;2024-02-21T05:49:01;101882.38;;;8.24;100.00
29417;BME280;28421;51.030;4.006;2024-02-21T05:51:27;101864.16;;;8.18;100.00
29417;BME280;28421;51.030;4.006;2024-02-21T05:53:52;101841.34;;;8.03;100.00
29417;BME280;28421;51.030;4.006;2024-02-21T05:56:18;101840.25;;;8.05;100.00
29417;BME280;28421;51.030;4.006;2024-02-21T05:58:44;101793.00;;;7.83;100.00
29417;BME280;28421;51.030;4.006;2024-02-21T06:01:10;101821.38;;;8.07;100.00
29417;BME280;28421;51.030;4.006;2024-02-21T06:03:36;101783.88;;;7.86;100.00
29417;BME280;28421;51.030;4.006;2024-02-21T06:06:02;101796.72;;;7.92;100.00
29417;BME280;28421;51.030;4.006;2024-02-21T06:08:30;101842.31;;;8.22;100.00
29417;BME280;28421;51.030;4.006;2024-02-21T06:10:55;101790.53;;;7.91;100.00
29417;BME280;28421;51.030;4.006;2024-02-21T06:13:22;101802.16;;;8.02;100.00
29417;BME280;28421;51.030;4.006;2024-02-21T06:15:47;101827.50;;;8.18;100.00
29417;BME280;28421;51.030;4.006;2024-02-21T06:18:13;101828.75;;;8.14;100.00
29417;BME280;28421;51.030;4.006;2024-02-21T06:20:38;101817.88;;;8.16;100.00
29417;BME280;28421;51.030;4.006;2024-02-21T06:23:06;101809.00;;;8.15;100.00
29417;BME280;28421;51.030;4.006;2024-02-21T06:25:31;101825.66;;;8.19;100.00
29417;BME280;28421;51.030;4.006;2024-02-21T06:27:57;101835.56;;;8.28;100.00
29417;BME280;28421;51.030;4.006;2024-02-21T06:30:22;101813.97;;;8.20;100.00
29417;BME280;28421;51.030;4.006;2024-02-21T06:32:48;101775.66;;;7.98;100.00
29417;BME280;28421;51.030;4.006;2024-02-21T06:35:13;101797.00;;;8.10;100.00
29417;BME280;28421;51.030;4.006;2024-02-21T06:37:39;101800.56;;;8.20;100.00
29417;BME280;28421;51.030;4.006;2024-02-21T06:40:05;101772.31;;;8.06;100.00
29417;BME280;28421;51.030;4.006;2024-02-21T06:42:30;101798.88;;;8.19;100.00
29417;BME280;28421;51.030;4.006;2024-02-21T06:44:56;101814.03;;;8.30;100.00
29417;BME280;28421;51.030;4.006;2024-02-21T06:47:22;101802.00;;;8.24;100.00
29417;BME280;28421;51.030;4.006;2024-02-21T06:49:51;101789.00;;;8.19;100.00
29417;BME280;28421;51.030;4.006;2024-02-21T06:52:20;101813.44;;;8.47;100.00
29417;BME280;28421;51.030;4.006;2024-02-21T06:54:46;101790.75;;;8.30;100.00
29417;BME280;28421;51.030;4.006;2024-02-21T06:57:13;101781.88;;;8.30;100.00
29417;BME280;28421;51.030;4.006;2024-02-21T06:59:40;101786.25;;;8.31;100.00
29417;BME280;28421;51.030;4.006;2024-02-21T07:02:05;101776.03;;;8.25;100.00
29417;BME280;28421;51.030;4.006;2024-02-21T07:04:32;101801.97;;;8.45;100.00
29417;BME280;28421;51.030;4.006;2024-02-21T07:06:57;101789.25;;;8.37;100.00
29417;BME280;28421;51.030;4.006;2024-02-21T07:09:23;101780.94;;;8.40;100.00
29417;BME280;28421;51.030;4.006;2024-02-21T07:11:48;101752.22;;;8.21;100.00
29417;BME280;28421;51.030;4.006;2024-02-21T07:14:14;101769.13;;;8.43;100.00
29417;BME280;28421;51.030;4.006;2024-02-21T07:16:41;101773.06;;;8.39;100.00
29417;BME280;28421;51.030;4.006;2024-02-21T07:19:06;101763.56;;;8.35;100.00
29417;BME280;28421;51.030;4.006;2024-02-21T07:21:32;101764.28;;;8.37;100.00
29417;BME280;28421;51.030;4.006;2024-02-21T07:23:58;101755.53;;;8.35;100.00
29417;BME280;28421;51.030;4.006;2024-02-21T07:26:23;101729.22;;;8.19;100.00
29417;BME280;28421;51.030;4.006;2024-02-21T07:28:49;101746.75;;;8.33;100.00
29417;BME280;28421;51.030;4.006;2024-02-21T07:31:15;101769.41;;;8.50;100.00
29417;BME280;28421;51.030;4.006;2024-02-21T07:33:40;101746.44;;;8.47;100.00
29417;BME280;28421;51.030;4.006;2024-02-21T07:36:10;101749.13;;;8.57;100.00
29417;BME280;28421;51.030;4.006;2024-02-21T07:38:36;101715.44;;;8.33;100.00
29417;BME280;28421;51.030;4.006;2024-02-21T07:41:02;101710.50;;;8.29;100.00
29417;BME280;28421;51.030;4.006;2024-02-21T07:43:29;101732.72;;;8.50;100.00
29417;BME280;28421;51.030;4.006;2024-02-21T07:45:55;101717.94;;;8.46;100.00
29417;BME280;28421;51.030;4.006;2024-02-21T07:48:21;101696.69;;;8.33;100.00
29417;BME280;28421;51.030;4.006;2024-02-21T07:50:50;101717.63;;;8.49;100.00
29417;BME280;28421;51.030;4.006;2024-02-21T07:53:16;101676.16;;;8.43;100.00
29417;BME280;28421;51.030;4.006;2024-02-21T07:55:41;101689.56;;;8.53;100.00
29417;BME280;28421;51.030;4.006;2024-02-21T07:58:07;101693.09;;;8.54;100.00
29417;BME280;28421;51.030;4.006;2024-02-21T08:00:32;101667.69;;;8.38;100.00
29417;BME280;28421;51.030;4.006;2024-02-21T08:02:58;101674.22;;;8.55;100.00
29417;BME280;28421;51.030;4.006;2024-02-21T08:05:24;101705.72;;;8.73;100.00
29417;BME280;28421;51.030;4.006;2024-02-21T08:07:49;101701.19;;;8.73;100.00
29417;BME280;28421;51.030;4.006;2024-02-21T08:10:15;101694.72;;;8.76;100.00
29417;BME280;28421;51.030;4.006;2024-02-21T08:12:40;101686.34;;;8.59;100.00
29417;BME280;28421;51.030;4.006;2024-02-21T08:15:06;101691.72;;;8.69;100.00
29417;BME280;28421;51.030;4.006;2024-02-21T08:17:34;101656.41;;;8.54;100.00
29417;BME280;28421;51.030;4.006;2024-02-21T08:19:59;101671.13;;;8.69;100.00
29417;BME280;28421;51.030;4.006;2024-02-21T08:22:24;101667.31;;;8.72;100.00
29417;BME280;28421;51.030;4.006;2024-02-21T08:24:51;101669.59;;;8.77;100.00
29417;BME280;28421;51.030;4.006;2024-02-21T08:27:16;101680.72;;;8.91;100.00
29417;BME280;28421;51.030;4.006;2024-02-21T08:29:42;101676.63;;;8.87;100.00
29417;BME280;28421;51.030;4.006;2024-02-21T08:32:07;101655.44;;;8.75;100.00
29417;BME280;28421;51.030;4.006;2024-02-21T08:34:33;101664.38;;;8.85;100.00
29417;BME280;28421;51.030;4.006;2024-02-21T08:36:59;101635.97;;;8.82;100.00
29417;BME280;28421;51.030;4.006;2024-02-21T08:39:25;101623.44;;;8.73;100.00
29417;BME280;28421;51.030;4.006;2024-02-21T08:41:51;101640.50;;;8.91;100.00
29417;BME280;28421;51.030;4.006;2024-02-21T08:44:16;101611.84;;;8.82;100.00
29417;BME280;28421;51.030;4.006;2024-02-21T08:46:42;101635.13;;;9.01;100.00
29417;BME280;28421;51.030;4.006;2024-02-21T08:49:07;101596.75;;;8.91;100.00
29417;BME280;28421;51.030;4.006;2024-02-21T08:51:33;101583.47;;;8.89;100.00
29417;BME280;28421;51.030;4.006;2024-02-21T08:53:58;101606.19;;;8.95;100.00
29417;BME280;28421;51.030;4.006;2024-02-21T08:56:25;101591.50;;;8.99;100.00
29417;BME280;28421;51.030;4.006;2024-02-21T08:58:50;101570.47;;;8.94;100.00
29417;BME280;28421;51.030;4.006;2024-02-21T09:01:16;101580.38;;;8.94;100.00
29417;BME280;28421;51.030;4.006;2024-02-21T09:03:41;101581.50;;;9.01;100.00
29417;BME280;28421;51.030;4.006;2024-02-21T09:06:07;101583.47;;;8.99;100.00
29417;BME280;28421;51.030;4.006;2024-02-21T09:08:33;101570.03;;;8.99;100.00
29417;BME280;28421;51.030;4.006;2024-02-21T09:11:02;101546.34;;;8.94;100.00
29417;BME280;28421;51.030;4.006;2024-02-21T09:13:28;101527.31;;;8.88;100.00
29417;BME280;28421;51.030;4.006;2024-02-21T09:15:54;101575.66;;;9.25;100.00
29417;BME280;28421;51.030;4.006;2024-02-21T09:18:19;101553.50;;;9.13;100.00
29417;BME280;28421;51.030;4.006;2024-02-21T09:20:45;101549.78;;;9.24;100.00
29417;BME280;28421;51.030;4.006;2024-02-21T09:23:11;101498.19;;;9.12;100.00
29417;BME280;28421;51.030;4.006;2024-02-21T09:25:37;101520.84;;;9.28;100.00
29417;BME280;28421;51.030;4.006;2024-02-21T09:28:02;101504.28;;;9.32;100.00
29417;BME280;28421;51.030;4.006;2024-02-21T09:30:28;101481.75;;;9.15;100.00
29417;BME280;28421;51.030;4.006;2024-02-21T09:32:54;101537.88;;;9.46;100.00
29417;BME280;28421;51.030;4.006;2024-02-21T09:35:19;101507.63;;;9.44;100.00
29417;BME280;28421;51.030;4.006;2024-02-21T09:37:47;101507.88;;;9.51;100.00
29417;BME280;28421;51.030;4.006;2024-02-21T09:40:15;101450.94;;;9.29;100.00
29417;BME280;28421;51.030;4.006;2024-02-21T09:42:41;101460.28;;;9.25;100.00
29417;BME280;28421;51.030;4.006;2024-02-21T09:45:20;101512.06;;;9.63;100.00
29417;BME280;28421;51.030;4.006;2024-02-21T09:47:58;101465.03;;;9.31;100.00
29417;BME280;28421;51.030;4.006;2024-02-21T09:50:26;101478.91;;;9.54;100.00
29417;BME280;28421;51.030;4.006;2024-02-21T09:52:53;101470.59;;;9.48;100.00
29417;BME280;28421;51.030;4.006;2024-02-21T09:55:20;101484.22;;;9.64;100.00
29417;BME280;28421;51.030;4.006;2024-02-21T09:57:45;101439.31;;;9.38;100.00
29417;BME280;28421;51.030;4.006;2024-02-21T10:00:12;101486.91;;;9.82;100.00
29417;BME280;28421;51.030;4.006;2024-02-21T10:02:39;101466.34;;;9.90;100.00
29417;BME280;28421;51.030;4.006;2024-02-21T10:05:05;101445.88;;;9.71;100.00
29417;BME280;28421;51.030;4.006;2024-02-21T10:07:33;101412.63;;;9.55;100.00
29417;BME280;28421;51.030;4.006;2024-02-21T10:10:05;101415.63;;;9.69;100.00
29417;BME280;28421;51.030;4.006;2024-02-21T10:12:31;101460.63;;;10.21;100.00
29417;BME280;28421;51.030;4.006;2024-02-21T10:15:04;101422.91;;;9.95;100.00
29417;BME280;28421;51.030;4.006;2024-02-21T10:17:30;101433.59;;;10.05;100.00
29417;BME280;28421;51.030;4.006;2024-02-21T10:20:28;101443.66;;;9.85;100.00
29417;BME280;28421;51.030;4.006;2024-02-21T10:23:03;101414.75;;;9.79;100.00
29417;BME280;28421;51.030;4.006;2024-02-21T10:25:36;101449.34;;;10.00;100.00
29417;BME280;28421;51.030;4.006;2024-02-21T10:28:13;101433.28;;;9.90;100.00
29417;BME280;28421;51.030;4.006;2024-02-21T10:30:50;101394.41;;;9.76;100.00
29417;BME280;28421;51.030;4.006;2024-02-21T10:33:16;101355.19;;;9.65;100.00
29417;BME280;28421;51.030;4.006;2024-02-21T10:35:41;101387.50;;;9.91;100.00
29417;BME280;28421;51.030;4.006;2024-02-21T10:38:07;101346.34;;;9.73;100.00
29417;BME280;28421;51.030;4.006;2024-02-21T10:40:32;101393.06;;;9.98;100.00
29417;BME280;28421;51.030;4.006;2024-02-21T10:42:59;101392.88;;;9.91;100.00
29417;BME280;28421;51.030;4.006;2024-02-21T10:45:38;101339.16;;;9.56;100.00
29417;BME280;28421;51.030;4.006;2024-02-21T10:48:22;101397.31;;;10.01;100.00
29417;BME280;28421;51.030;4.006;2024-02-21T10:53:44;101326.31;;;9.50;100.00
29417;BME280;28421;51.030;4.006;2024-02-21T10:58:48;101386.03;;;9.79;100.00
29417;BME280;28421;51.030;4.006;2024-02-21T11:01:14;101344.06;;;9.60;100.00
29417;BME280;28421;51.030;4.006;2024-02-21T11:03:45;101351.25;;;9.78;100.00
29417;BME280;28421;51.030;4.006;2024-02-21T11:06:12;101339.06;;;9.65;100.00
29417;BME280;28421;51.030;4.006;2024-02-21T11:08:39;101344.50;;;9.74;100.00
29417;BME280;28421;51.030;4.006;2024-02-21T11:11:05;101340.59;;;9.86;100.00
29417;BME280;28421;51.030;4.006;2024-02-21T11:13:31;101326.09;;;9.61;100.00
29417;BME280;28421;51.030;4.006;2024-02-21T11:16:11;101305.81;;;9.58;100.00
29417;BME280;28421;51.030;4.006;2024-02-21T11:18:38;101324.88;;;9.73;100.00
29417;BME280;28421;51.030;4.006;2024-02-21T11:21:04;101325.81;;;9.64;100.00
29417;BME280;28421;51.030;4.006;2024-02-21T11:23:32;101310.84;;;9.61;100.00
29417;BME280;28421;51.030;4.006;2024-02-21T11:26:08;101327.72;;;9.71;100.00
29417;BME280;28421;51.030;4.006;2024-02-21T11:28:35;101319.44;;;9.65;100.00
29417;BME280;28421;51.030;4.006;2024-02-21T11:31:22;101320.09;;;9.85;100.00
29417;BME280;28421;51.030;4.006;2024-02-21T11:33:47;101301.84;;;9.88;100.00
29417;BME280;28421;51.030;4.006;2024-02-21T11:36:24;101252.97;;;9.85;100.00
29417;BME280;28421;51.030;4.006;2024-02-21T11:38:51;101262.03;;;9.84;100.00
29417;BME280;28421;51.030;4.006;2024-02-21T11:41:16;101249.56;;;9.83;100.00
29417;BME280;28421;51.030;4.006;2024-02-21T11:43:42;101238.34;;;9.79;100.00
29417;BME280;28421;51.030;4.006;2024-02-21T11:46:07;101222.84;;;9.73;100.00
29417;BME280;28421;51.030;4.006;2024-02-21T11:48:33;101249.31;;;9.94;100.00
29417;BME280;28421;51.030;4.006;2024-02-21T11:50:58;101260.78;;;9.96;100.00
29417;BME280;28421;51.030;4.006;2024-02-21T11:53:25;101239.22;;;9.88;100.00
29417;BME280;28421;51.030;4.006;2024-02-21T11:55:56;101267.41;;;10.10;100.00
29417;BME280;28421;51.030;4.006;2024-02-21T11:58:22;101254.22;;;9.99;100.00
29417;BME280;28421;51.030;4.006;2024-02-21T12:00:48;101248.75;;;10.08;100.00
29417;BME280;28421;51.030;4.006;2024-02-21T12:03:14;101209.56;;;9.98;100.00
29417;BME280;28421;51.030;4.006;2024-02-21T12:05:41;101225.25;;;10.10;100.00
29417;BME280;28421;51.030;4.006;2024-02-21T12:08:06;101241.66;;;10.25;100.00
29417;BME280;28421;51.030;4.006;2024-02-21T12:10:35;101231.66;;;10.17;100.00
29417;BME280;28421;51.030;4.006;2024-02-21T12:13:10;101233.72;;;10.24;100.00
29417;BME280;28421;51.030;4.006;2024-02-21T12:15:38;101221.72;;;10.10;100.00
29417;BME280;28421;51.030;4.006;2024-02-21T12:18:04;101216.66;;;10.07;100.00
29417;BME280;28421;51.030;4.006;2024-02-21T12:20:30;101186.97;;;10.08;100.00
29417;BME280;28421;51.030;4.006;2024-02-21T12:23:00;101173.19;;;10.11;100.00
29417;BME280;28421;51.030;4.006;2024-02-21T12:25:25;101178.94;;;10.16;100.00
29417;BME280;28421;51.030;4.006;2024-02-21T12:27:55;101150.50;;;10.06;100.00
29417;BME280;28421;51.030;4.006;2024-02-21T12:30:31;101153.53;;;10.11;100.00
29417;BME280;28421;51.030;4.006;2024-02-21T12:32:58;101126.13;;;9.99;100.00
29417;BME280;28421;51.030;4.006;2024-02-21T12:35:26;101132.56;;;10.14;100.00
29417;BME280;28421;51.030;4.006;2024-02-21T12:37:52;101140.47;;;10.16;100.00
29417;BME280;28421;51.030;4.006;2024-02-21T12:40:17;101122.25;;;10.36;100.00
29417;BME280;28421;51.030;4.006;2024-02-21T12:42:43;101115.19;;;10.35;100.00
29417;BME280;28421;51.030;4.006;2024-02-21T12:45:10;101087.09;;;10.21;100.00
29417;BME280;28421;51.030;4.006;2024-02-21T12:47:36;101113.53;;;10.34;100.00
29417;BME280;28421;51.030;4.006;2024-02-21T12:50:03;101115.91;;;10.45;100.00
29417;BME280;28421;51.030;4.006;2024-02-21T12:52:29;101094.06;;;10.48;100.00